Latest Weather Observations for Kanagulk

IDV60801

Issued at 11:32 pm EDT Saturday 10 December 2016 (issued every 30 minutes, with the page automatically refreshed every 10 minutes)

About weather observations | Map of weather stations | Latest weather observations for VIC | Other Formats
Station Details ID: 079097 Name: KANAGULK Lat: -37.12 Lon: 141.80 Height: 188.8 m
Data from the previous 72 hours. | See also: Recent months at Kanagulk
Date/Time
EDT
Temp
°C
App
Temp
°C
Dew
Point
°C
Rel
Hum
%
Delta-T
°C
Wind Press
QNH
hPa
Press
MSL
hPa
Rain since
9am
mm
Dir  Spd
km/h
Gust
km/h
Spd
kts
Gust
kts
10/11:30pm 11.1 8.5 9.2 88 1.0 S 13 19 7 10 1023.8 1023.4 0.0
10/11:00pm 11.2 8.5 9.1 87 1.1 S 13 19 7 10 1023.7 1023.3 0.0
10/10:30pm 11.3 8.7 9.2 87 1.1 S 13 19 7 10 1023.8 1023.4 0.0
10/10:00pm 11.8 9.2 9.4 85 1.2 S 13 19 7 10 1023.7 1023.3 0.0
10/09:30pm 12.3 9.3 9.3 82 1.5 S 15 20 8 11 1023.5 1023.1 0.0
10/09:00pm 13.0 10.0 9.1 77 2.0 S 15 20 8 11 1023.3 1022.9 0.0
10/08:30pm 14.0 10.2 9.0 72 2.6 S 19 26 10 14 1023.2 1022.8 0.0
10/08:00pm 15.4 11.9 8.9 65 3.3 SSW 17 26 9 14 1022.9 1022.4 0.0
10/07:30pm 16.3 11.9 9.0 62 3.8 S 22 30 12 16 1022.6 1022.1 0.0
10/07:00pm 17.3 13.4 8.7 57 4.5 S 19 28 10 15 1022.4 1021.9 0.0
10/06:30pm 18.4 14.6 8.9 54 5.0 S 19 30 10 16 1022.2 1021.7 0.0
10/06:00pm 19.0 15.5 8.6 51 5.4 SSW 17 35 9 19 1022.1 1021.6 0.0
10/05:30pm 18.9 14.4 8.6 51 5.4 SSE 22 30 12 16 1022.2 1021.7 0.0
10/05:00pm 19.0 15.4 8.4 50 5.5 SSW 17 28 9 15 1022.3 1021.8 0.0
10/04:30pm 18.4 14.2 8.4 52 5.2 SSW 20 32 11 17 1022.4 1021.9 0.0
10/04:00pm 19.7 16.2 8.7 49 5.8 S 17 26 9 14 1022.4 1021.9 0.0
10/03:30pm 19.7 16.6 8.7 49 5.8 S 15 24 8 13 1022.6 1022.1 0.0
10/03:00pm 19.3 16.1 8.3 49 5.7 SSE 15 24 8 13 1022.9 1022.4 0.0
10/02:30pm 18.8 16.4 8.5 51 5.4 S 11 19 6 10 1023.2 1022.8 0.0
10/02:00pm 18.4 15.8 9.2 55 4.8 SSE 13 22 7 12 1023.6 1023.2 0.0
10/01:30pm 18.3 15.5 8.6 53 5.1 SE 13 20 7 11 1023.8 1023.4 0.0
10/01:00pm 17.3 14.9 7.1 51 5.1 WSW 9 17 5 9 1024.1 1023.7 0.0
10/12:30pm 16.6 13.6 7.5 55 4.6 S 13 20 7 11 1024.4 1023.9 0.0
10/12:00pm 16.1 13.2 6.5 53 4.7 SSE 11 19 6 10 1024.6 1024.1 0.0
10/11:30am 15.3 12.1 6.8 57 4.2 SW 13 19 7 10 1024.7 1024.2 0.0
10/11:00am 16.2 14.0 7.7 57 4.3 SSE 9 19 5 10 1024.8 1024.3 0.0
10/10:30am 14.2 11.8 6.8 61 3.6 SW 9 15 5 8 1024.9 1024.4 0.0
10/10:00am 13.7 11.1 6.1 60 3.6 SSE 9 13 5 7 1024.9 1024.4 0.0
10/09:30am 12.2 10.2 6.3 67 2.8 S 6 11 3 6 1024.9 1024.4 0.0
10/09:00am 11.8 9.6 6.3 69 2.6 SSW 7 13 4 7 1024.9 1024.4 0.0
10/08:30am 11.5 9.1 7.2 75 2.1 SSW 9 17 5 9 1024.7 1024.2 0.0
10/08:00am 10.9 9.2 7.4 79 1.7 SSE 6 11 3 6 1024.4 1023.9 0.0
10/07:30am 10.5 8.6 7.7 83 1.4 S 7 11 4 6 1024.0 1023.6 0.0
10/07:00am 9.9 7.6 7.3 84 1.2 S 9 15 5 8 1023.7 1023.3 0.0
10/06:30am 9.1 8.6 7.9 92 0.6 CALM 0 0 0 0 1023.4 1023.0 0.0
10/06:00am 8.9 8.1 8.3 96 0.3 S 2 6 1 3 1023.2 1022.8 0.0
10/05:30am 8.6 6.9 8.3 98 0.1 S 7 9 4 5 1022.9 1022.4 0.0
10/05:00am 7.9 6.3 7.8 99 0.0 S 6 7 3 4 1022.6 1022.1 0.0
10/04:30am 7.2 5.2 7.1 99 0.0 SSW 7 9 4 5 1022.5 1022.0 0.0
10/04:00am 7.3 5.5 7.2 99 0.0 SW 6 7 3 4 1022.7 1022.2 0.0
10/03:30am 7.6 5.9 7.5 99 0.0 SSW 6 9 3 5 1022.7 1022.2 0.0
10/03:00am 7.7 5.8 7.6 99 0.0 SSW 7 9 4 5 1022.8 1022.3 0.0
10/02:30am 7.5 5.5 6.9 96 0.3 SSW 7 9 4 5 1022.8 1022.3 0.0
10/02:00am 7.8 5.8 7.1 95 0.3 S 7 11 4 6 1022.9 1022.4 0.0
10/01:30am 7.9 7.2 7.1 95 0.4 CALM 0 0 0 0 1023.0 1022.5 0.0
10/01:00am 8.9 6.9 6.9 87 0.9 SSW 7 11 4 6 1023.3 1022.9 0.0
10/12:30am 9.4 6.9 6.7 83 1.3 SSW 9 13 5 7 1023.2 1022.8 0.0
10/12:00am 10.4 7.2 6.9 79 1.7 S 13 17 7 9 1023.3 1022.9 0.0
 
Date/Time
EDT
Temp
°C
App
Temp
°C
Dew
Point
°C
Rel
Hum
%
Delta-T
°C
Wind Press
QNH
hPa
Press
MSL
hPa
Rain since
9am
mm
Dir  Spd
km/h
Gust
km/h
Spd
kts
Gust
kts
09/11:30pm 11.3 8.9 6.8 74 2.2 S 9 15 5 8 1023.3 1022.9 0.0
09/11:00pm 11.6 8.6 6.1 69 2.6 S 11 17 6 9 1023.2 1022.8 0.0
09/10:30pm 11.5 9.1 7.2 75 2.1 S 9 15 5 8 1023.3 1022.9 0.0
09/10:00pm 11.4 7.8 6.9 74 2.2 S 15 20 8 11 1023.1 1022.7 0.0
09/09:30pm 12.1 8.5 6.8 70 2.6 S 15 20 8 11 1022.8 1022.3 0.0
09/09:00pm 12.6 9.6 6.0 64 3.1 SSW 11 19 6 10 1022.6 1022.1 0.0
09/08:30pm 12.9 8.9 6.7 66 3.0 SSW 17 22 9 12 1022.5 1022.0 0.0
09/08:00pm 13.1 8.7 6.7 65 3.1 S 19 30 10 16 1022.2 1021.7 0.0
09/07:30pm 13.8 10.2 6.9 63 3.4 SSW 15 20 8 11 1022.0 1021.5 0.0
09/07:00pm 13.6 10.1 7.2 65 3.1 SW 15 28 8 15 1021.6 1021.1 0.0
09/06:30pm 13.8 9.5 7.1 64 3.3 S 19 26 10 14 1021.3 1020.8 0.0
09/06:00pm 14.5 10.0 7.1 61 3.6 SW 20 30 11 16 1020.9 1020.4 0.0
09/05:30pm 15.4 11.8 6.7 56 4.3 SSW 15 24 8 13 1020.7 1020.2 0.0
09/05:00pm 15.6 11.5 6.1 53 4.6 SSW 17 30 9 16 1020.7 1020.2 0.0
09/04:30pm 14.8 10.4 6.6 58 4.0 SSW 19 24 10 13 1020.8 1020.3 0.0
09/04:00pm 15.4 10.4 6.4 55 4.4 SSW 22 32 12 17 1020.8 1020.3 0.0
09/03:30pm 15.3 10.6 6.1 54 4.5 SSW 20 28 11 15 1020.8 1020.3 0.0
09/03:00pm 16.2 12.5 6.1 51 4.9 SSW 15 30 8 16 1020.7 1020.2 0.0
09/02:30pm 15.5 11.0 6.0 53 4.6 SSW 19 28 10 15 1020.7 1020.2 0.0
09/02:00pm 15.4 11.3 6.2 54 4.5 SW 17 28 9 15 1020.7 1020.2 0.0
09/01:30pm 15.1 11.4 4.5 49 5.0 SW 13 24 7 13 1020.7 1020.2 0.0
09/01:00pm 16.8 12.6 7.4 54 4.7 SSW 19 24 10 13 1020.8 1020.3 0.0
09/12:30pm 14.8 11.1 6.1 56 4.2 S 15 22 8 12 1020.7 1020.2 0.0
09/12:00pm 13.6 9.0 5.7 59 3.8 SSW 19 30 10 16 1020.8 1020.3 0.0
09/11:30am 12.3 8.3 5.0 61 3.4 SSW 15 26 8 14 1020.7 1020.2 0.0
09/11:00am 12.7 8.3 6.5 66 3.0 SSW 19 26 10 14 1020.3 1019.8 0.0
09/10:30am 12.3 8.3 6.8 69 2.7 SSW 17 32 9 17 1020.0 1019.5 0.0
09/10:00am 11.9 7.8 6.2 68 2.7 SSW 17 30 9 16 1019.6 1019.1 0.0
09/09:30am 12.5 8.0 6.3 66 3.0 SSW 19 32 10 17 1019.3 1018.8 0.0
09/09:00am 12.0 7.5 7.1 72 2.4 SSW 20 32 11 17 1019.1 1018.6 3.2
09/08:30am 11.2 7.3 7.1 76 2.0 SSW 17 26 9 14 1018.2 1017.7 3.2
09/08:00am 10.6 7.6 7.8 83 1.4 SW 13 20 7 11 1017.8 1017.3 3.2
09/07:30am 10.1 7.3 8.4 89 0.8 SW 13 22 7 12 1017.3 1016.8 3.2
09/07:00am 8.5 6.4 8.1 97 0.2 WSW 9 15 5 8 1016.7 1016.2 3.2
09/06:30am 7.6 5.3 7.5 99 0.0 SW 9 15 5 8 1016.1 1015.6 3.2
09/06:00am 7.8 5.6 7.7 99 0.0 SW 9 15 5 8 1015.7 1015.2 3.2
09/05:30am 8.2 5.6 7.8 97 0.2 SW 11 15 6 8 1015.2 1014.7 3.2
09/05:00am 8.5 5.5 7.9 96 0.3 SW 13 19 7 10 1014.7 1014.2 3.2
09/04:30am 8.5 6.0 8.1 97 0.2 SW 11 17 6 9 1014.4 1013.9 3.2
09/04:00am 8.5 5.9 7.6 94 0.4 SW 11 17 6 9 1014.0 1013.5 3.2
09/03:30am 8.8 5.0 7.7 93 0.5 SW 17 24 9 13 1013.7 1013.1 3.2
09/03:00am 8.6 5.6 7.8 95 0.4 SW 13 19 7 10 1013.5 1012.9 3.0
09/02:30am 8.6 5.6 7.8 95 0.4 SW 13 22 7 12 1013.4 1012.8 3.0
09/02:00am 8.4 5.8 7.6 95 0.4 SW 11 17 6 9 1013.3 1012.7 3.0
09/01:30am 8.6 5.9 7.5 93 0.5 WSW 11 19 6 10 1013.3 1012.7 3.0
09/01:00am 8.9 6.3 7.8 93 0.5 WSW 11 20 6 11 1013.2 1012.6 3.0
09/12:30am 9.1 6.9 8.0 93 0.5 WSW 9 17 5 9 1012.9 1012.4 3.0
09/12:00am 9.8 6.2 8.4 91 0.7 SW 17 35 9 19 1012.8 1012.3 3.0
 
Date/Time
EDT
Temp
°C
App
Temp
°C
Dew
Point
°C
Rel
Hum
%
Delta-T
°C
Wind Press
QNH
hPa
Press
MSL
hPa
Rain since
9am
mm
Dir  Spd
km/h
Gust
km/h
Spd
kts
Gust
kts
08/11:30pm 9.6 6.9 8.8 95 0.4 SW 13 26 7 14 1012.6 1012.1 3.0
08/11:00pm 10.6 7.0 8.5 87 1.0 SW 17 24 9 13 1012.3 1011.8 2.4
08/10:30pm 10.6 7.3 8.0 84 1.3 SW 15 24 8 13 1011.8 1011.3 2.4
08/10:00pm 10.4 7.1 8.2 86 1.1 WSW 15 26 8 14 1011.2 1010.7 2.4
08/09:30pm 11.0 7.0 8.2 83 1.4 SW 19 30 10 16 1010.6 1010.1 2.0
08/09:00pm 10.7 7.4 8.1 84 1.3 WSW 15 28 8 15 1009.9 1009.4 2.0
08/08:30pm 11.0 8.0 9.1 88 1.0 WSW 15 24 8 13 1009.3 1008.7 2.0
08/08:00pm 11.5 7.6 9.6 88 1.0 SW 20 30 11 16 1008.7 1008.1 2.0
08/07:30pm 11.9 8.9 10.6 92 0.7 WSW 17 32 9 17 1008.1 1007.5 2.0
08/07:00pm 11.9 7.6 10.6 92 0.7 SW 24 44 13 24 1007.2 1006.7 2.0
08/06:30pm 13.5 9.0 10.1 80 1.8 SW 24 37 13 20 1006.4 1005.9 1.2
08/06:07pm 12.6 6.9 8.5 76 2.1 SW 28 67 15 36 1006.1 1005.6 0.8
08/06:00pm 16.5 11.4 7.7 56 4.5 WSW 24 39 13 21 1005.4 1004.9 0.8
08/05:50pm 16.3 10.3 7.0 54 4.6 WSW 28 48 15 26 1005.3 1004.8 0.8
08/05:30pm 16.4 10.6 7.9 57 4.3 WSW 28 43 15 23 1004.9 1004.4 0.8
08/05:00pm 16.9 12.6 9.3 61 4.0 W 22 39 12 21 1004.5 1003.9 0.8
08/04:30pm 15.1 9.8 9.9 71 2.7 WSW 28 50 15 27 1004.4 1003.8 0.8
08/04:00pm 15.1 9.8 9.9 71 2.7 WSW 28 48 15 26 1003.9 1003.3 0.8
08/03:59pm 15.1 9.8 9.7 70 2.8 WSW 28 48 15 26 1003.9 1003.3 0.8
08/03:30pm 17.3 13.2 10.0 62 3.9 WSW 22 44 12 24 1003.2 1002.6 0.8
08/03:16pm 16.7 11.5 10.1 65 3.5 WSW 28 46 15 25 1003.1 1002.5 0.8
08/03:00pm 15.6 10.9 10.6 72 2.7 WSW 26 44 14 24 1003.2 1002.6 0.8
08/02:30pm 13.7 9.6 11.4 86 1.2 WSW 24 43 13 23 1003.3 1002.7 0.8
08/02:00pm 15.1 9.7 10.9 76 2.3 WSW 30 56 16 30 1002.9 1002.3 0.0
08/01:55pm 17.5 12.4 7.5 52 5.1 WSW 24 48 13 26 1002.4 1001.8 0.0
08/01:30pm 18.6 12.8 6.4 45 6.1 W 26 46 14 25 1002.0 1001.5 0.0
08/01:00pm 17.4 13.1 7.7 53 5.0 W 20 37 11 20 1001.9 1001.4 0.0
08/12:34pm 17.6 11.5 6.5 48 5.5 W 28 46 15 25 1001.6 1001.1 0.0
08/12:30pm 18.1 12.8 6.6 47 5.8 W 24 43 13 23 1001.6 1001.1 0.0
08/12:18pm 18.0 11.9 6.5 47 5.8 W 28 48 15 26 1001.5 1001.0 0.0
08/12:00pm 18.0 13.2 7.4 50 5.4 W 22 37 12 20 1001.6 1001.1 0.0
08/11:40am 17.3 11.2 6.8 50 5.3 W 28 57 15 31 1001.6 1001.1 0.0
08/11:30am 18.0 13.4 8.3 53 5.0 W 22 44 12 24 1001.6 1001.1 0.0
08/11:00am 16.7 12.0 7.9 56 4.5 WNW 22 41 12 22 1001.4 1000.9 0.0
08/10:30am 16.6 11.3 9.8 64 3.6 W 28 50 15 27 1001.0 1000.5 0.0
08/10:00am 15.6 10.0 8.6 63 3.6 W 28 54 15 29 1000.6 1000.1 0.0
08/09:59am 15.6 9.8 8.1 61 3.8 W 28 48 15 26 1000.6 1000.1 0.0
08/09:30am 15.1 9.9 9.0 67 3.1 W 26 43 14 23 1000.8 1000.3 0.0
08/09:28am 15.3 9.8 9.2 67 3.2 W 28 46 15 25 1000.7 1000.2 0.0
08/09:00am 14.7 10.3 9.1 69 2.9 W 22 43 12 23 1000.6 1000.1 13.0
08/08:30am 14.1 9.4 9.3 73 2.5 W 24 43 13 23 1000.3 999.8 13.0
08/08:00am 13.6 10.3 11.0 84 1.4 W 19 35 10 19 1000.0 999.4 13.0
08/07:30am 13.4 9.3 11.3 87 1.1 W 24 44 13 24 999.4 998.8 13.0
08/07:00am 13.5 10.0 12.1 91 0.8 W 22 46 12 25 999.0 998.4 13.0
08/06:34am 15.3 11.5 14.7 96 0.3 WNW 28 57 15 31 997.9 997.3 12.8
08/06:30am 16.1 13.1 15.9 99 0.1 WNW 26 43 14 23 997.8 997.2 12.8
08/06:11am 17.1 13.8 16.9 99 0.1 NW 30 57 16 31 997.1 996.5 12.8
08/06:10am 17.3 14.4 17.1 99 0.1 NW 28 57 15 31 996.9 996.3 12.8
08/06:00am 17.6 16.4 17.6 100 0.0 NNW 20 32 11 17 996.3 995.8 11.8
08/05:30am 17.2 15.4 17.0 99 0.1 NNW 22 48 12 26 996.4 995.9 11.2
08/05:00am 17.1 16.6 16.9 99 0.1 NNW 15 30 8 16 997.2 996.6 7.6
08/04:30am 17.3 15.2 16.3 94 0.6 NNW 22 33 12 18 997.2 996.6 6.6
08/04:10am 17.4 14.0 15.9 91 0.9 N 28 46 15 25 997.4 996.8 5.6
08/04:00am 17.3 15.6 15.8 91 0.9 N 19 35 10 19 998.3 997.7 4.4
08/03:32am 18.7 16.6 14.6 77 2.4 NNW 19 69 10 37 998.9 998.3 2.6
08/03:30am 18.5 17.3 14.0 75 2.6 NNW 13 50 7 27 999.0 998.4 2.2
08/03:00am 20.5 17.1 12.5 60 4.6 N 22 32 12 17 997.4 996.8 0.8
08/02:30am 20.8 16.3 12.5 59 4.7 NNE 28 43 15 23 997.4 996.8 0.8
08/02:00am 19.3 15.5 13.7 70 3.3 NNE 26 33 14 18 998.4 997.8 0.8
08/01:46am 18.9 14.6 14.4 75 2.6 N 30 48 16 26 999.3 998.7 0.8
08/01:30am 19.7 17.0 13.4 67 3.6 N 20 35 11 19 1000.3 999.8 0.8
08/01:00am 22.6 21.5 12.0 51 6.1 WNW 9 17 5 9 1001.4 1000.9 0.0
08/12:30am 24.5 18.6 7.6 34 9.0 NNE 28 44 15 24 999.8 999.2 0.0
08/12:00am 24.3 19.4 8.3 36 8.7 NNE 24 39 13 21 1000.6 1000.1 0.0

Other Formats:

Comma delimited format used in spreadsheet applications
http://www.bom.gov.au/fwo/IDV60801/IDV60801.95827.axf

JavaScript Object Notation format (JSON) in row-major order
http://www.bom.gov.au/fwo/IDV60801/IDV60801.95827.json